sensor_id;sensor_type;location;lat;lon;timestamp;P1;durP1;ratioP1;P2;durP2;ratioP2
24467;SDS011;12634;50.852;5.676;2023-05-29T00:00:42;9.07;;;3.45;;
24467;SDS011;12634;50.852;5.676;2023-05-29T00:03:09;9.48;;;3.63;;
24467;SDS011;12634;50.852;5.676;2023-05-29T00:05:38;10.20;;;3.55;;
24467;SDS011;12634;50.852;5.676;2023-05-29T00:08:06;9.30;;;3.40;;
24467;SDS011;12634;50.852;5.676;2023-05-29T00:10:33;8.15;;;3.58;;
24467;SDS011;12634;50.852;5.676;2023-05-29T00:13:02;7.65;;;3.58;;
24467;SDS011;12634;50.852;5.676;2023-05-29T00:15:29;9.70;;;4.03;;
24467;SDS011;12634;50.852;5.676;2023-05-29T00:17:56;9.73;;;3.95;;
24467;SDS011;12634;50.852;5.676;2023-05-29T00:20:23;6.00;;;3.38;;
24467;SDS011;12634;50.852;5.676;2023-05-29T00:22:50;8.73;;;3.30;;
24467;SDS011;12634;50.852;5.676;2023-05-29T00:25:19;10.30;;;3.60;;
24467;SDS011;12634;50.852;5.676;2023-05-29T00:27:46;7.13;;;3.75;;
24467;SDS011;12634;50.852;5.676;2023-05-29T00:30:13;10.07;;;4.10;;
24467;SDS011;12634;50.852;5.676;2023-05-29T00:32:40;6.28;;;3.63;;
24467;SDS011;12634;50.852;5.676;2023-05-29T00:35:08;8.60;;;3.45;;
24467;SDS011;12634;50.852;5.676;2023-05-29T00:37:35;8.43;;;3.60;;
24467;SDS011;12634;50.852;5.676;2023-05-29T00:40:03;12.13;;;4.07;;
24467;SDS011;12634;50.852;5.676;2023-05-29T00:42:33;7.18;;;3.80;;
24467;SDS011;12634;50.852;5.676;2023-05-29T00:45:00;7.68;;;3.63;;
24467;SDS011;12634;50.852;5.676;2023-05-29T00:47:27;11.75;;;3.90;;
24467;SDS011;12634;50.852;5.676;2023-05-29T00:49:55;9.68;;;3.92;;
24467;SDS011;12634;50.852;5.676;2023-05-29T00:52:23;10.38;;;4.32;;
24467;SDS011;12634;50.852;5.676;2023-05-29T00:54:51;9.43;;;4.10;;
24467;SDS011;12634;50.852;5.676;2023-05-29T00:57:19;8.55;;;3.80;;
24467;SDS011;12634;50.852;5.676;2023-05-29T00:59:48;10.43;;;4.22;;
24467;SDS011;12634;50.852;5.676;2023-05-29T01:02:16;8.23;;;3.72;;
24467;SDS011;12634;50.852;5.676;2023-05-29T01:04:44;8.00;;;4.25;;
24467;SDS011;12634;50.852;5.676;2023-05-29T01:07:11;8.63;;;4.22;;
24467;SDS011;12634;50.852;5.676;2023-05-29T01:09:39;10.55;;;5.05;;
24467;SDS011;12634;50.852;5.676;2023-05-29T01:12:11;10.52;;;4.90;;
24467;SDS011;12634;50.852;5.676;2023-05-29T01:14:51;8.90;;;4.70;;
24467;SDS011;12634;50.852;5.676;2023-05-29T01:17:31;11.93;;;5.03;;
24467;SDS011;12634;50.852;5.676;2023-05-29T01:20:08;13.35;;;5.63;;
24467;SDS011;12634;50.852;5.676;2023-05-29T01:22:52;9.90;;;4.90;;
24467;SDS011;12634;50.852;5.676;2023-05-29T01:25:35;10.43;;;4.80;;
24467;SDS011;12634;50.852;5.676;2023-05-29T01:28:20;10.63;;;4.72;;
24467;SDS011;12634;50.852;5.676;2023-05-29T01:30:51;11.90;;;5.07;;
24467;SDS011;12634;50.852;5.676;2023-05-29T01:33:23;12.05;;;5.32;;
24467;SDS011;12634;50.852;5.676;2023-05-29T01:35:50;11.27;;;4.88;;
24467;SDS011;12634;50.852;5.676;2023-05-29T01:38:17;10.57;;;4.90;;
24467;SDS011;12634;50.852;5.676;2023-05-29T01:40:45;9.38;;;5.53;;
24467;SDS011;12634;50.852;5.676;2023-05-29T01:43:13;11.82;;;5.65;;
24467;SDS011;12634;50.852;5.676;2023-05-29T01:45:42;9.85;;;5.50;;
24467;SDS011;12634;50.852;5.676;2023-05-29T01:48:10;7.57;;;4.30;;
24467;SDS011;12634;50.852;5.676;2023-05-29T01:50:37;8.82;;;5.63;;
24467;SDS011;12634;50.852;5.676;2023-05-29T01:53:05;15.10;;;5.53;;
24467;SDS011;12634;50.852;5.676;2023-05-29T01:55:32;12.60;;;5.53;;
24467;SDS011;12634;50.852;5.676;2023-05-29T01:57:59;9.77;;;5.38;;
24467;SDS011;12634;50.852;5.676;2023-05-29T02:00:28;14.30;;;5.78;;
24467;SDS011;12634;50.852;5.676;2023-05-29T02:02:56;11.55;;;5.00;;
24467;SDS011;12634;50.852;5.676;2023-05-29T02:05:24;8.05;;;5.38;;
24467;SDS011;12634;50.852;5.676;2023-05-29T02:07:51;10.48;;;5.50;;
24467;SDS011;12634;50.852;5.676;2023-05-29T02:10:18;8.70;;;5.85;;
24467;SDS011;12634;50.852;5.676;2023-05-29T02:12:45;8.50;;;5.45;;
24467;SDS011;12634;50.852;5.676;2023-05-29T02:15:12;12.73;;;5.05;;
24467;SDS011;12634;50.852;5.676;2023-05-29T02:17:39;12.15;;;5.88;;
24467;SDS011;12634;50.852;5.676;2023-05-29T02:20:09;10.73;;;6.00;;
24467;SDS011;12634;50.852;5.676;2023-05-29T02:22:37;12.65;;;5.88;;
24467;SDS011;12634;50.852;5.676;2023-05-29T02:25:04;12.15;;;6.63;;
24467;SDS011;12634;50.852;5.676;2023-05-29T02:27:32;15.07;;;6.35;;
24467;SDS011;12634;50.852;5.676;2023-05-29T02:29:59;13.27;;;6.40;;
24467;SDS011;12634;50.852;5.676;2023-05-29T02:32:26;9.27;;;6.00;;
24467;SDS011;12634;50.852;5.676;2023-05-29T02:34:54;10.23;;;6.55;;
24467;SDS011;12634;50.852;5.676;2023-05-29T02:37:23;9.23;;;5.85;;
24467;SDS011;12634;50.852;5.676;2023-05-29T02:39:51;14.10;;;6.30;;
24467;SDS011;12634;50.852;5.676;2023-05-29T02:42:18;13.40;;;6.82;;
24467;SDS011;12634;50.852;5.676;2023-05-29T02:44:45;12.25;;;6.15;;
24467;SDS011;12634;50.852;5.676;2023-05-29T02:47:12;11.98;;;6.53;;
24467;SDS011;12634;50.852;5.676;2023-05-29T02:49:39;11.25;;;6.60;;
24467;SDS011;12634;50.852;5.676;2023-05-29T02:52:07;9.60;;;5.70;;
24467;SDS011;12634;50.852;5.676;2023-05-29T02:54:36;11.55;;;6.00;;
24467;SDS011;12634;50.852;5.676;2023-05-29T02:57:03;10.43;;;5.68;;
24467;SDS011;12634;50.852;5.676;2023-05-29T02:59:31;11.88;;;5.70;;
24467;SDS011;12634;50.852;5.676;2023-05-29T03:01:58;9.35;;;5.47;;
24467;SDS011;12634;50.852;5.676;2023-05-29T03:04:26;11.65;;;4.97;;
24467;SDS011;12634;50.852;5.676;2023-05-29T03:06:53;14.30;;;5.68;;
24467;SDS011;12634;50.852;5.676;2023-05-29T03:09:20;14.00;;;5.45;;
24467;SDS011;12634;50.852;5.676;2023-05-29T03:11:49;13.52;;;5.60;;
24467;SDS011;12634;50.852;5.676;2023-05-29T03:14:17;10.77;;;5.53;;
24467;SDS011;12634;50.852;5.676;2023-05-29T03:16:46;9.55;;;4.57;;
24467;SDS011;12634;50.852;5.676;2023-05-29T03:19:14;13.65;;;5.35;;
24467;SDS011;12634;50.852;5.676;2023-05-29T03:21:41;14.05;;;4.93;;
24467;SDS011;12634;50.852;5.676;2023-05-29T03:24:09;15.65;;;5.15;;
24467;SDS011;12634;50.852;5.676;2023-05-29T03:26:36;12.52;;;5.20;;
24467;SDS011;12634;50.852;5.676;2023-05-29T03:29:05;11.88;;;4.90;;
24467;SDS011;12634;50.852;5.676;2023-05-29T03:31:32;15.27;;;5.43;;
24467;SDS011;12634;50.852;5.676;2023-05-29T03:34:00;10.10;;;4.38;;
24467;SDS011;12634;50.852;5.676;2023-05-29T03:36:27;13.90;;;5.05;;
24467;SDS011;12634;50.852;5.676;2023-05-29T03:38:54;10.57;;;4.35;;
24467;SDS011;12634;50.852;5.676;2023-05-29T03:41:21;12.50;;;4.35;;
24467;SDS011;12634;50.852;5.676;2023-05-29T03:43:48;10.80;;;4.47;;
24467;SDS011;12634;50.852;5.676;2023-05-29T03:46:17;10.45;;;5.10;;
24467;SDS011;12634;50.852;5.676;2023-05-29T03:48:44;11.43;;;4.60;;
24467;SDS011;12634;50.852;5.676;2023-05-29T03:51:11;13.02;;;4.38;;
24467;SDS011;12634;50.852;5.676;2023-05-29T03:53:38;9.48;;;4.25;;
24467;SDS011;12634;50.852;5.676;2023-05-29T03:56:05;16.95;;;4.50;;
24467;SDS011;12634;50.852;5.676;2023-05-29T03:58:32;11.30;;;4.13;;
24467;SDS011;12634;50.852;5.676;2023-05-29T04:01:01;11.75;;;4.50;;
24467;SDS011;12634;50.852;5.676;2023-05-29T04:03:30;13.65;;;4.28;;
24467;SDS011;12634;50.852;5.676;2023-05-29T04:05:57;14.82;;;4.00;;
24467;SDS011;12634;50.852;5.676;2023-05-29T04:08:25;13.75;;;4.20;;
24467;SDS011;12634;50.852;5.676;2023-05-29T04:10:52;11.25;;;3.83;;
24467;SDS011;12634;50.852;5.676;2023-05-29T04:13:19;6.85;;;3.53;;
24467;SDS011;12634;50.852;5.676;2023-05-29T04:15:46;11.20;;;3.40;;
24467;SDS011;12634;50.852;5.676;2023-05-29T04:18:13;12.27;;;3.85;;
24467;SDS011;12634;50.852;5.676;2023-05-29T04:20:42;13.30;;;3.65;;
24467;SDS011;12634;50.852;5.676;2023-05-29T04:23:12;13.13;;;3.80;;
24467;SDS011;12634;50.852;5.676;2023-05-29T04:25:39;11.15;;;3.42;;
24467;SDS011;12634;50.852;5.676;2023-05-29T04:28:06;13.32;;;3.53;;
24467;SDS011;12634;50.852;5.676;2023-05-29T04:30:35;12.13;;;3.50;;
24467;SDS011;12634;50.852;5.676;2023-05-29T04:33:04;13.13;;;3.22;;
24467;SDS011;12634;50.852;5.676;2023-05-29T04:35:31;10.52;;;3.60;;
24467;SDS011;12634;50.852;5.676;2023-05-29T04:38:00;10.95;;;3.72;;
24467;SDS011;12634;50.852;5.676;2023-05-29T04:40:27;8.98;;;3.28;;
24467;SDS011;12634;50.852;5.676;2023-05-29T04:42:54;13.57;;;3.20;;
24467;SDS011;12634;50.852;5.676;2023-05-29T04:45:21;10.68;;;3.03;;
24467;SDS011;12634;50.852;5.676;2023-05-29T04:47:48;9.02;;;3.30;;
24467;SDS011;12634;50.852;5.676;2023-05-29T04:50:17;15.52;;;2.83;;
24467;SDS011;12634;50.852;5.676;2023-05-29T04:52:45;9.23;;;3.20;;
24467;SDS011;12634;50.852;5.676;2023-05-29T04:55:14;9.43;;;2.65;;
24467;SDS011;12634;50.852;5.676;2023-05-29T04:57:41;11.60;;;3.25;;
24467;SDS011;12634;50.852;5.676;2023-05-29T05:00:09;10.60;;;2.95;;
24467;SDS011;12634;50.852;5.676;2023-05-29T05:02:39;10.75;;;2.75;;
24467;SDS011;12634;50.852;5.676;2023-05-29T05:05:08;10.52;;;2.95;;
24467;SDS011;12634;50.852;5.676;2023-05-29T05:07:36;12.10;;;2.80;;
24467;SDS011;12634;50.852;5.676;2023-05-29T05:10:03;8.85;;;2.67;;
24467;SDS011;12634;50.852;5.676;2023-05-29T05:12:32;11.15;;;2.80;;
24467;SDS011;12634;50.852;5.676;2023-05-29T05:15:00;10.30;;;3.00;;
24467;SDS011;12634;50.852;5.676;2023-05-29T05:17:27;9.90;;;2.67;;
24467;SDS011;12634;50.852;5.676;2023-05-29T05:19:54;6.88;;;2.60;;
24467;SDS011;12634;50.852;5.676;2023-05-29T05:22:21;9.80;;;2.75;;
24467;SDS011;12634;50.852;5.676;2023-05-29T05:24:48;11.13;;;3.33;;
24467;SDS011;12634;50.852;5.676;2023-05-29T05:27:17;11.48;;;3.17;;
24467;SDS011;12634;50.852;5.676;2023-05-29T05:29:45;16.63;;;3.08;;
24467;SDS011;12634;50.852;5.676;2023-05-29T05:32:12;11.15;;;3.17;;
24467;SDS011;12634;50.852;5.676;2023-05-29T05:34:40;15.23;;;3.03;;
24467;SDS011;12634;50.852;5.676;2023-05-29T05:37:07;9.75;;;3.15;;
24467;SDS011;12634;50.852;5.676;2023-05-29T05:39:35;9.43;;;3.20;;
24467;SDS011;12634;50.852;5.676;2023-05-29T05:42:02;11.43;;;3.17;;
24467;SDS011;12634;50.852;5.676;2023-05-29T05:44:30;14.48;;;3.33;;
24467;SDS011;12634;50.852;5.676;2023-05-29T05:46:59;11.85;;;3.22;;
24467;SDS011;12634;50.852;5.676;2023-05-29T05:49:26;15.95;;;3.15;;
24467;SDS011;12634;50.852;5.676;2023-05-29T05:51:53;14.18;;;3.20;;
24467;SDS011;12634;50.852;5.676;2023-05-29T05:54:20;12.75;;;3.83;;
24467;SDS011;12634;50.852;5.676;2023-05-29T05:56:47;11.80;;;3.10;;
24467;SDS011;12634;50.852;5.676;2023-05-29T05:59:14;10.52;;;2.70;;
24467;SDS011;12634;50.852;5.676;2023-05-29T06:01:41;13.05;;;2.72;;
24467;SDS011;12634;50.852;5.676;2023-05-29T06:04:10;12.07;;;2.85;;
24467;SDS011;12634;50.852;5.676;2023-05-29T06:06:37;12.70;;;3.22;;
24467;SDS011;12634;50.852;5.676;2023-05-29T06:09:04;10.70;;;2.55;;
24467;SDS011;12634;50.852;5.676;2023-05-29T06:11:31;11.43;;;3.20;;
24467;SDS011;12634;50.852;5.676;2023-05-29T06:13:58;10.32;;;3.03;;
24467;SDS011;12634;50.852;5.676;2023-05-29T06:16:26;11.27;;;2.80;;
24467;SDS011;12634;50.852;5.676;2023-05-29T06:18:53;9.63;;;2.92;;
24467;SDS011;12634;50.852;5.676;2023-05-29T06:21:21;9.82;;;2.47;;
24467;SDS011;12634;50.852;5.676;2023-05-29T06:23:49;9.50;;;2.90;;
24467;SDS011;12634;50.852;5.676;2023-05-29T06:26:16;11.00;;;2.50;;
24467;SDS011;12634;50.852;5.676;2023-05-29T06:28:43;9.18;;;3.00;;
24467;SDS011;12634;50.852;5.676;2023-05-29T06:31:10;11.07;;;2.70;;
24467;SDS011;12634;50.852;5.676;2023-05-29T06:33:37;13.43;;;2.75;;
24467;SDS011;12634;50.852;5.676;2023-05-29T06:36:04;10.57;;;2.88;;
24467;SDS011;12634;50.852;5.676;2023-05-29T06:38:33;14.25;;;2.95;;
24467;SDS011;12634;50.852;5.676;2023-05-29T06:41:00;7.57;;;2.33;;
24467;SDS011;12634;50.852;5.676;2023-05-29T06:43:27;10.68;;;2.80;;
24467;SDS011;12634;50.852;5.676;2023-05-29T06:45:55;12.57;;;3.42;;
24467;SDS011;12634;50.852;5.676;2023-05-29T06:48:22;9.45;;;2.45;;
24467;SDS011;12634;50.852;5.676;2023-05-29T06:50:49;9.95;;;3.05;;
24467;SDS011;12634;50.852;5.676;2023-05-29T06:53:16;10.40;;;2.60;;
24467;SDS011;12634;50.852;5.676;2023-05-29T06:55:45;11.27;;;2.80;;
24467;SDS011;12634;50.852;5.676;2023-05-29T06:58:12;9.57;;;2.72;;
24467;SDS011;12634;50.852;5.676;2023-05-29T07:00:39;6.65;;;2.60;;
24467;SDS011;12634;50.852;5.676;2023-05-29T07:03:06;12.48;;;3.35;;
24467;SDS011;12634;50.852;5.676;2023-05-29T07:05:33;12.88;;;3.08;;
24467;SDS011;12634;50.852;5.676;2023-05-29T07:08:01;11.88;;;3.13;;
24467;SDS011;12634;50.852;5.676;2023-05-29T07:10:28;12.25;;;2.40;;
24467;SDS011;12634;50.852;5.676;2023-05-29T07:12:56;10.95;;;3.70;;
24467;SDS011;12634;50.852;5.676;2023-05-29T07:15:24;9.18;;;2.58;;
24467;SDS011;12634;50.852;5.676;2023-05-29T07:17:51;9.13;;;3.33;;
24467;SDS011;12634;50.852;5.676;2023-05-29T07:20:18;10.77;;;2.90;;
24467;SDS011;12634;50.852;5.676;2023-05-29T07:22:45;11.77;;;2.90;;
24467;SDS011;12634;50.852;5.676;2023-05-29T07:25:12;8.57;;;2.72;;
24467;SDS011;12634;50.852;5.676;2023-05-29T07:27:40;8.98;;;2.97;;
24467;SDS011;12634;50.852;5.676;2023-05-29T07:30:09;9.52;;;2.83;;
24467;SDS011;12634;50.852;5.676;2023-05-29T07:32:36;11.25;;;3.10;;
24467;SDS011;12634;50.852;5.676;2023-05-29T07:35:04;13.15;;;2.95;;
24467;SDS011;12634;50.852;5.676;2023-05-29T07:37:32;9.45;;;2.58;;
24467;SDS011;12634;50.852;5.676;2023-05-29T07:40:00;15.07;;;3.03;;
24467;SDS011;12634;50.852;5.676;2023-05-29T07:42:30;10.27;;;2.83;;
24467;SDS011;12634;50.852;5.676;2023-05-29T07:44:58;12.57;;;2.80;;
24467;SDS011;12634;50.852;5.676;2023-05-29T07:47:26;11.30;;;2.80;;
24467;SDS011;12634;50.852;5.676;2023-05-29T07:49:54;10.65;;;3.28;;
24467;SDS011;12634;50.852;5.676;2023-05-29T07:52:21;12.75;;;3.13;;
24467;SDS011;12634;50.852;5.676;2023-05-29T07:54:48;10.15;;;3.00;;
24467;SDS011;12634;50.852;5.676;2023-05-29T07:57:15;9.82;;;3.05;;
24467;SDS011;12634;50.852;5.676;2023-05-29T07:59:42;10.40;;;3.00;;
24467;SDS011;12634;50.852;5.676;2023-05-29T08:02:09;9.35;;;2.90;;
24467;SDS011;12634;50.852;5.676;2023-05-29T08:04:38;11.38;;;3.42;;
24467;SDS011;12634;50.852;5.676;2023-05-29T08:07:06;8.50;;;2.63;;
24467;SDS011;12634;50.852;5.676;2023-05-29T08:09:34;6.70;;;2.30;;
24467;SDS011;12634;50.852;5.676;2023-05-29T08:12:01;8.40;;;2.50;;
24467;SDS011;12634;50.852;5.676;2023-05-29T08:14:29;10.15;;;3.38;;
24467;SDS011;12634;50.852;5.676;2023-05-29T08:16:56;10.98;;;2.80;;
24467;SDS011;12634;50.852;5.676;2023-05-29T08:19:23;12.13;;;3.15;;
24467;SDS011;12634;50.852;5.676;2023-05-29T08:21:52;8.57;;;2.97;;
24467;SDS011;12634;50.852;5.676;2023-05-29T08:24:19;10.57;;;3.03;;
24467;SDS011;12634;50.852;5.676;2023-05-29T08:26:46;9.20;;;2.92;;
24467;SDS011;12634;50.852;5.676;2023-05-29T08:29:14;9.73;;;2.28;;
24467;SDS011;12634;50.852;5.676;2023-05-29T08:31:41;10.23;;;2.67;;
24467;SDS011;12634;50.852;5.676;2023-05-29T08:34:08;11.00;;;2.95;;
24467;SDS011;12634;50.852;5.676;2023-05-29T08:36:35;10.55;;;2.85;;
24467;SDS011;12634;50.852;5.676;2023-05-29T08:39:04;12.23;;;2.40;;
24467;SDS011;12634;50.852;5.676;2023-05-29T08:41:33;10.60;;;2.80;;
24467;SDS011;12634;50.852;5.676;2023-05-29T08:44:08;10.93;;;2.95;;
24467;SDS011;12634;50.852;5.676;2023-05-29T08:46:39;10.48;;;2.63;;
24467;SDS011;12634;50.852;5.676;2023-05-29T08:49:07;10.40;;;2.97;;
24467;SDS011;12634;50.852;5.676;2023-05-29T08:51:36;12.98;;;3.35;;
24467;SDS011;12634;50.852;5.676;2023-05-29T08:54:07;9.55;;;2.88;;
24467;SDS011;12634;50.852;5.676;2023-05-29T08:56:35;13.23;;;3.30;;
24467;SDS011;12634;50.852;5.676;2023-05-29T08:59:02;11.35;;;3.03;;
24467;SDS011;12634;50.852;5.676;2023-05-29T09:01:30;9.13;;;2.67;;
24467;SDS011;12634;50.852;5.676;2023-05-29T09:03:58;15.60;;;3.50;;
24467;SDS011;12634;50.852;5.676;2023-05-29T09:06:26;14.30;;;2.92;;
24467;SDS011;12634;50.852;5.676;2023-05-29T09:08:53;9.20;;;2.95;;
24467;SDS011;12634;50.852;5.676;2023-05-29T09:11:22;13.32;;;2.92;;
24467;SDS011;12634;50.852;5.676;2023-05-29T09:13:51;11.10;;;2.95;;
24467;SDS011;12634;50.852;5.676;2023-05-29T09:16:19;9.20;;;2.90;;
24467;SDS011;12634;50.852;5.676;2023-05-29T09:18:47;10.65;;;3.05;;
24467;SDS011;12634;50.852;5.676;2023-05-29T09:21:24;10.52;;;2.83;;
24467;SDS011;12634;50.852;5.676;2023-05-29T09:23:54;10.60;;;2.70;;
24467;SDS011;12634;50.852;5.676;2023-05-29T09:26:30;12.13;;;3.10;;
24467;SDS011;12634;50.852;5.676;2023-05-29T09:28:57;10.57;;;3.00;;
24467;SDS011;12634;50.852;5.676;2023-05-29T09:31:25;10.27;;;3.03;;
24467;SDS011;12634;50.852;5.676;2023-05-29T09:33:52;9.52;;;2.88;;
24467;SDS011;12634;50.852;5.676;2023-05-29T09:36:19;10.20;;;2.92;;
24467;SDS011;12634;50.852;5.676;2023-05-29T09:38:48;13.40;;;3.08;;
24467;SDS011;12634;50.852;5.676;2023-05-29T09:41:20;9.98;;;2.97;;
24467;SDS011;12634;50.852;5.676;2023-05-29T09:43:50;9.02;;;3.20;;
24467;SDS011;12634;50.852;5.676;2023-05-29T09:46:18;11.85;;;3.30;;
24467;SDS011;12634;50.852;5.676;2023-05-29T09:48:46;7.65;;;2.85;;
24467;SDS011;12634;50.852;5.676;2023-05-29T09:51:20;8.75;;;3.10;;
24467;SDS011;12634;50.852;5.676;2023-05-29T09:53:48;11.13;;;2.70;;
24467;SDS011;12634;50.852;5.676;2023-05-29T09:56:16;10.60;;;3.25;;
24467;SDS011;12634;50.852;5.676;2023-05-29T09:58:44;12.52;;;2.80;;
24467;SDS011;12634;50.852;5.676;2023-05-29T10:01:14;12.98;;;3.22;;
24467;SDS011;12634;50.852;5.676;2023-05-29T10:03:41;12.50;;;2.58;;
24467;SDS011;12634;50.852;5.676;2023-05-29T10:06:09;10.65;;;2.92;;
24467;SDS011;12634;50.852;5.676;2023-05-29T10:08:40;9.43;;;3.10;;
24467;SDS011;12634;50.852;5.676;2023-05-29T10:11:13;11.38;;;2.70;;
24467;SDS011;12634;50.852;5.676;2023-05-29T10:13:42;8.45;;;2.78;;
24467;SDS011;12634;50.852;5.676;2023-05-29T10:16:15;10.82;;;2.60;;
24467;SDS011;12634;50.852;5.676;2023-05-29T10:18:47;8.55;;;2.80;;
24467;SDS011;12634;50.852;5.676;2023-05-29T10:21:20;9.15;;;2.55;;
24467;SDS011;12634;50.852;5.676;2023-05-29T10:23:49;9.68;;;2.97;;
24467;SDS011;12634;50.852;5.676;2023-05-29T10:26:19;13.95;;;3.10;;
24467;SDS011;12634;50.852;5.676;2023-05-29T10:28:49;10.80;;;2.72;;
24467;SDS011;12634;50.852;5.676;2023-05-29T10:31:26;11.82;;;3.17;;
24467;SDS011;12634;50.852;5.676;2023-05-29T10:34:02;9.50;;;2.38;;
24467;SDS011;12634;50.852;5.676;2023-05-29T10:36:41;9.32;;;3.17;;
24467;SDS011;12634;50.852;5.676;2023-05-29T10:39:10;7.78;;;2.80;;
24467;SDS011;12634;50.852;5.676;2023-05-29T10:41:38;8.57;;;2.47;;
24467;SDS011;12634;50.852;5.676;2023-05-29T10:47:07;8.63;;;2.90;;
24467;SDS011;12634;50.852;5.676;2023-05-29T10:49:37;7.65;;;2.53;;
24467;SDS011;12634;50.852;5.676;2023-05-29T10:52:05;8.98;;;2.95;;
24467;SDS011;12634;50.852;5.676;2023-05-29T10:54:50;13.02;;;3.15;;
24467;SDS011;12634;50.852;5.676;2023-05-29T10:57:20;13.52;;;2.83;;
24467;SDS011;12634;50.852;5.676;2023-05-29T11:02:47;13.57;;;3.17;;
24467;SDS011;12634;50.852;5.676;2023-05-29T11:05:18;9.05;;;2.83;;
24467;SDS011;12634;50.852;5.676;2023-05-29T11:07:55;8.77;;;3.00;;
24467;SDS011;12634;50.852;5.676;2023-05-29T11:10:43;10.20;;;2.50;;
24467;SDS011;12634;50.852;5.676;2023-05-29T11:13:25;7.47;;;2.28;;
24467;SDS011;12634;50.852;5.676;2023-05-29T11:16:12;13.77;;;2.67;;
24467;SDS011;12634;50.852;5.676;2023-05-29T11:18:47;7.32;;;2.70;;
24467;SDS011;12634;50.852;5.676;2023-05-29T11:21:19;10.75;;;2.80;;
24467;SDS011;12634;50.852;5.676;2023-05-29T11:23:50;11.20;;;2.90;;
24467;SDS011;12634;50.852;5.676;2023-05-29T11:26:19;11.80;;;3.08;;
24467;SDS011;12634;50.852;5.676;2023-05-29T11:28:49;7.88;;;2.47;;
24467;SDS011;12634;50.852;5.676;2023-05-29T11:31:16;7.80;;;2.88;;
24467;SDS011;12634;50.852;5.676;2023-05-29T11:33:49;8.70;;;2.55;;
24467;SDS011;12634;50.852;5.676;2023-05-29T11:36:17;12.20;;;2.53;;
24467;SDS011;12634;50.852;5.676;2023-05-29T11:38:45;9.65;;;2.78;;
24467;SDS011;12634;50.852;5.676;2023-05-29T11:41:13;7.38;;;2.53;;
24467;SDS011;12634;50.852;5.676;2023-05-29T11:43:43;6.55;;;2.10;;
24467;SDS011;12634;50.852;5.676;2023-05-29T11:46:17;9.00;;;2.72;;
24467;SDS011;12634;50.852;5.676;2023-05-29T11:48:45;7.53;;;2.40;;
24467;SDS011;12634;50.852;5.676;2023-05-29T11:51:14;9.52;;;2.90;;
24467;SDS011;12634;50.852;5.676;2023-05-29T11:53:42;9.23;;;2.97;;
24467;SDS011;12634;50.852;5.676;2023-05-29T11:56:09;9.68;;;2.60;;
24467;SDS011;12634;50.852;5.676;2023-05-29T11:58:37;7.97;;;2.65;;
24467;SDS011;12634;50.852;5.676;2023-05-29T12:01:05;12.93;;;3.03;;
24467;SDS011;12634;50.852;5.676;2023-05-29T12:03:36;7.22;;;2.38;;
24467;SDS011;12634;50.852;5.676;2023-05-29T12:06:05;10.68;;;3.00;;
24467;SDS011;12634;50.852;5.676;2023-05-29T12:08:34;8.48;;;2.75;;
24467;SDS011;12634;50.852;5.676;2023-05-29T12:11:02;8.90;;;2.90;;
24467;SDS011;12634;50.852;5.676;2023-05-29T12:13:29;7.55;;;2.65;;
24467;SDS011;12634;50.852;5.676;2023-05-29T12:15:57;8.07;;;2.63;;
24467;SDS011;12634;50.852;5.676;2023-05-29T12:18:26;8.55;;;2.72;;
24467;SDS011;12634;50.852;5.676;2023-05-29T12:20:57;7.13;;;2.78;;
24467;SDS011;12634;50.852;5.676;2023-05-29T12:23:25;11.27;;;2.65;;
24467;SDS011;12634;50.852;5.676;2023-05-29T12:25:55;10.15;;;2.72;;
24467;SDS011;12634;50.852;5.676;2023-05-29T12:28:22;7.65;;;2.63;;
24467;SDS011;12634;50.852;5.676;2023-05-29T12:30:49;8.73;;;2.95;;
24467;SDS011;12634;50.852;5.676;2023-05-29T12:33:29;9.05;;;2.88;;
24467;SDS011;12634;50.852;5.676;2023-05-29T12:36:06;10.45;;;2.88;;
24467;SDS011;12634;50.852;5.676;2023-05-29T12:38:45;13.80;;;2.60;;
24467;SDS011;12634;50.852;5.676;2023-05-29T12:41:26;9.90;;;2.20;;
24467;SDS011;12634;50.852;5.676;2023-05-29T12:43:54;7.03;;;2.38;;
24467;SDS011;12634;50.852;5.676;2023-05-29T12:46:22;5.85;;;2.03;;
24467;SDS011;12634;50.852;5.676;2023-05-29T12:48:52;8.13;;;2.10;;
24467;SDS011;12634;50.852;5.676;2023-05-29T12:51:23;6.38;;;2.20;;
24467;SDS011;12634;50.852;5.676;2023-05-29T12:53:50;7.93;;;2.28;;
24467;SDS011;12634;50.852;5.676;2023-05-29T12:56:20;9.55;;;2.10;;
24467;SDS011;12634;50.852;5.676;2023-05-29T12:58:50;8.73;;;3.22;;
24467;SDS011;12634;50.852;5.676;2023-05-29T13:01:17;11.52;;;2.42;;
24467;SDS011;12634;50.852;5.676;2023-05-29T13:03:45;9.43;;;1.83;;
24467;SDS011;12634;50.852;5.676;2023-05-29T13:06:12;7.95;;;2.08;;
24467;SDS011;12634;50.852;5.676;2023-05-29T13:08:39;6.60;;;2.10;;
24467;SDS011;12634;50.852;5.676;2023-05-29T13:11:06;10.18;;;2.25;;
24467;SDS011;12634;50.852;5.676;2023-05-29T13:13:34;8.02;;;2.25;;
24467;SDS011;12634;50.852;5.676;2023-05-29T13:16:02;9.35;;;2.58;;
24467;SDS011;12634;50.852;5.676;2023-05-29T13:18:30;7.13;;;1.92;;
24467;SDS011;12634;50.852;5.676;2023-05-29T13:20:57;11.38;;;2.63;;
24467;SDS011;12634;50.852;5.676;2023-05-29T13:23:25;6.40;;;2.05;;
24467;SDS011;12634;50.852;5.676;2023-05-29T13:25:52;8.55;;;2.90;;
24467;SDS011;12634;50.852;5.676;2023-05-29T13:28:19;9.30;;;2.50;;
24467;SDS011;12634;50.852;5.676;2023-05-29T13:30:46;8.32;;;2.53;;
24467;SDS011;12634;50.852;5.676;2023-05-29T13:33:15;12.52;;;2.70;;
24467;SDS011;12634;50.852;5.676;2023-05-29T13:35:42;8.02;;;2.42;;
24467;SDS011;12634;50.852;5.676;2023-05-29T13:38:09;10.70;;;2.58;;
24467;SDS011;12634;50.852;5.676;2023-05-29T13:40:36;9.25;;;2.88;;
24467;SDS011;12634;50.852;5.676;2023-05-29T13:43:03;9.63;;;2.38;;
24467;SDS011;12634;50.852;5.676;2023-05-29T13:45:30;12.68;;;2.75;;
24467;SDS011;12634;50.852;5.676;2023-05-29T13:47:58;7.72;;;2.10;;
24467;SDS011;12634;50.852;5.676;2023-05-29T13:50:26;11.20;;;2.80;;
24467;SDS011;12634;50.852;5.676;2023-05-29T13:52:53;11.93;;;2.70;;
24467;SDS011;12634;50.852;5.676;2023-05-29T13:55:20;8.32;;;2.75;;
24467;SDS011;12634;50.852;5.676;2023-05-29T13:57:48;10.18;;;2.50;;
24467;SDS011;12634;50.852;5.676;2023-05-29T14:00:15;9.23;;;2.55;;
24467;SDS011;12634;50.852;5.676;2023-05-29T14:02:43;6.80;;;2.13;;
24467;SDS011;12634;50.852;5.676;2023-05-29T14:05:10;11.23;;;2.45;;
24467;SDS011;12634;50.852;5.676;2023-05-29T14:07:39;7.90;;;2.47;;
24467;SDS011;12634;50.852;5.676;2023-05-29T14:10:06;8.32;;;2.33;;
24467;SDS011;12634;50.852;5.676;2023-05-29T14:12:33;7.82;;;2.47;;
24467;SDS011;12634;50.852;5.676;2023-05-29T14:15:01;7.20;;;2.20;;
24467;SDS011;12634;50.852;5.676;2023-05-29T14:17:28;8.65;;;2.60;;
24467;SDS011;12634;50.852;5.676;2023-05-29T14:19:55;8.63;;;2.70;;
24467;SDS011;12634;50.852;5.676;2023-05-29T14:22:22;6.70;;;2.05;;
24467;SDS011;12634;50.852;5.676;2023-05-29T14:24:50;10.45;;;3.13;;
24467;SDS011;12634;50.852;5.676;2023-05-29T14:27:18;9.25;;;2.30;;
24467;SDS011;12634;50.852;5.676;2023-05-29T14:29:45;7.38;;;2.50;;
24467;SDS011;12634;50.852;5.676;2023-05-29T14:32:12;7.32;;;1.95;;
24467;SDS011;12634;50.852;5.676;2023-05-29T14:34:39;7.70;;;2.30;;
24467;SDS011;12634;50.852;5.676;2023-05-29T14:37:06;7.63;;;2.22;;
24467;SDS011;12634;50.852;5.676;2023-05-29T14:39:33;10.18;;;2.13;;
24467;SDS011;12634;50.852;5.676;2023-05-29T14:42:02;9.30;;;2.47;;
24467;SDS011;12634;50.852;5.676;2023-05-29T14:44:30;8.82;;;2.20;;
24467;SDS011;12634;50.852;5.676;2023-05-29T14:46:58;6.28;;;2.22;;
24467;SDS011;12634;50.852;5.676;2023-05-29T14:49:26;8.63;;;2.33;;
24467;SDS011;12634;50.852;5.676;2023-05-29T14:51:57;6.20;;;2.25;;
24467;SDS011;12634;50.852;5.676;2023-05-29T14:54:24;9.73;;;1.92;;